sensor_id;sensor_type;location;lat;lon;timestamp;temperature;humidity
38084;DHT22;23894;51.466;7.444;2022-09-30T00:00:08;7.30;99.90
38084;DHT22;23894;51.466;7.444;2022-09-30T00:02:09;7.30;99.90
38084;DHT22;23894;51.466;7.444;2022-09-30T00:04:22;7.30;99.90
38084;DHT22;23894;51.466;7.444;2022-09-30T00:06:24;7.20;99.90
38084;DHT22;23894;51.466;7.444;2022-09-30T00:08:25;7.20;99.90
38084;DHT22;23894;51.466;7.444;2022-09-30T00:10:26;7.20;99.90
38084;DHT22;23894;51.466;7.444;2022-09-30T00:12:26;7.10;99.90
38084;DHT22;23894;51.466;7.444;2022-09-30T00:14:27;7.10;99.90
38084;DHT22;23894;51.466;7.444;2022-09-30T00:16:31;7.10;99.90
38084;DHT22;23894;51.466;7.444;2022-09-30T00:18:32;7.10;99.90
38084;DHT22;23894;51.466;7.444;2022-09-30T00:20:34;7.10;99.90
38084;DHT22;23894;51.466;7.444;2022-09-30T00:22:34;7.00;99.90
38084;DHT22;23894;51.466;7.444;2022-09-30T00:24:35;7.00;99.90
38084;DHT22;23894;51.466;7.444;2022-09-30T00:26:35;7.00;99.90
38084;DHT22;23894;51.466;7.444;2022-09-30T00:28:36;7.00;99.90
38084;DHT22;23894;51.466;7.444;2022-09-30T00:30:37;7.00;99.90
38084;DHT22;23894;51.466;7.444;2022-09-30T00:32:38;7.00;99.90
38084;DHT22;23894;51.466;7.444;2022-09-30T00:34:38;7.00;99.90
38084;DHT22;23894;51.466;7.444;2022-09-30T00:36:47;7.00;99.90
38084;DHT22;23894;51.466;7.444;2022-09-30T00:38:48;7.00;99.90
38084;DHT22;23894;51.466;7.444;2022-09-30T00:40:49;6.90;99.90
38084;DHT22;23894;51.466;7.444;2022-09-30T00:42:50;6.90;99.90
38084;DHT22;23894;51.466;7.444;2022-09-30T00:45:05;6.90;99.90
38084;DHT22;23894;51.466;7.444;2022-09-30T00:49:27;6.90;99.90
38084;DHT22;23894;51.466;7.444;2022-09-30T00:51:38;6.80;99.90
38084;DHT22;23894;51.466;7.444;2022-09-30T00:53:51;6.90;99.90
38084;DHT22;23894;51.466;7.444;2022-09-30T00:58:05;6.80;99.90
38084;DHT22;23894;51.466;7.444;2022-09-30T01:00:07;6.80;99.90
38084;DHT22;23894;51.466;7.444;2022-09-30T01:02:08;6.80;99.90
38084;DHT22;23894;51.466;7.444;2022-09-30T01:04:21;6.80;99.90
38084;DHT22;23894;51.466;7.444;2022-09-30T01:06:23;6.80;99.90
38084;DHT22;23894;51.466;7.444;2022-09-30T01:08:23;6.80;99.90
38084;DHT22;23894;51.466;7.444;2022-09-30T01:10:25;6.80;99.90
38084;DHT22;23894;51.466;7.444;2022-09-30T01:12:25;6.80;99.90
38084;DHT22;23894;51.466;7.444;2022-09-30T01:14:27;6.70;99.90
38084;DHT22;23894;51.466;7.444;2022-09-30T01:21:02;6.70;99.90
38084;DHT22;23894;51.466;7.444;2022-09-30T01:23:46;6.70;99.90
38084;DHT22;23894;51.466;7.444;2022-09-30T01:25:52;6.70;99.90
38084;DHT22;23894;51.466;7.444;2022-09-30T01:31:07;6.60;99.90
38084;DHT22;23894;51.466;7.444;2022-09-30T01:42:12;6.50;99.90
38084;DHT22;23894;51.466;7.444;2022-09-30T01:46:35;6.50;99.90
38084;DHT22;23894;51.466;7.444;2022-09-30T01:48:49;6.50;99.90
38084;DHT22;23894;51.466;7.444;2022-09-30T01:51:08;6.50;99.90
38084;DHT22;23894;51.466;7.444;2022-09-30T01:55:50;6.40;99.90
38084;DHT22;23894;51.466;7.444;2022-09-30T01:58:08;6.40;99.90
38084;DHT22;23894;51.466;7.444;2022-09-30T02:00:12;6.40;99.90
38084;DHT22;23894;51.466;7.444;2022-09-30T02:02:33;6.40;99.90
38084;DHT22;23894;51.466;7.444;2022-09-30T02:04:40;6.30;99.90
38084;DHT22;23894;51.466;7.444;2022-09-30T02:06:47;6.30;99.90
38084;DHT22;23894;51.466;7.444;2022-09-30T02:09:17;6.30;99.90
38084;DHT22;23894;51.466;7.444;2022-09-30T02:11:29;6.30;99.90
38084;DHT22;23894;51.466;7.444;2022-09-30T02:13:41;6.30;99.90
38084;DHT22;23894;51.466;7.444;2022-09-30T02:15:48;6.30;99.90
38084;DHT22;23894;51.466;7.444;2022-09-30T02:20:29;6.30;99.90
38084;DHT22;23894;51.466;7.444;2022-09-30T02:22:37;6.20;99.90
38084;DHT22;23894;51.466;7.444;2022-09-30T02:24:43;6.20;99.90
38084;DHT22;23894;51.466;7.444;2022-09-30T02:26:47;6.20;99.90
38084;DHT22;23894;51.466;7.444;2022-09-30T02:29:02;6.30;99.90
38084;DHT22;23894;51.466;7.444;2022-09-30T02:31:04;6.20;99.90
38084;DHT22;23894;51.466;7.444;2022-09-30T02:33:12;6.30;99.90
38084;DHT22;23894;51.466;7.444;2022-09-30T02:35:33;6.30;99.90
38084;DHT22;23894;51.466;7.444;2022-09-30T02:37:38;6.30;99.90
38084;DHT22;23894;51.466;7.444;2022-09-30T02:39:56;6.30;99.90
38084;DHT22;23894;51.466;7.444;2022-09-30T02:42:04;6.20;99.90
38084;DHT22;23894;51.466;7.444;2022-09-30T02:44:08;6.20;99.90
38084;DHT22;23894;51.466;7.444;2022-09-30T02:53:49;6.20;99.90
38084;DHT22;23894;51.466;7.444;2022-09-30T03:00:07;6.20;99.90
38084;DHT22;23894;51.466;7.444;2022-09-30T03:02:08;6.20;99.90
38084;DHT22;23894;51.466;7.444;2022-09-30T03:04:11;6.20;99.90
38084;DHT22;23894;51.466;7.444;2022-09-30T03:06:13;6.20;99.90
38084;DHT22;23894;51.466;7.444;2022-09-30T03:08:14;6.20;99.90
38084;DHT22;23894;51.466;7.444;2022-09-30T03:10:16;6.20;99.90
38084;DHT22;23894;51.466;7.444;2022-09-30T03:28:46;6.10;99.90
38084;DHT22;23894;51.466;7.444;2022-09-30T03:33:26;6.00;99.90
38084;DHT22;23894;51.466;7.444;2022-09-30T03:38:14;6.00;99.90
38084;DHT22;23894;51.466;7.444;2022-09-30T03:43:04;6.00;99.90
38084;DHT22;23894;51.466;7.444;2022-09-30T03:45:29;5.90;99.90
38084;DHT22;23894;51.466;7.444;2022-09-30T03:47:33;5.90;99.90
38084;DHT22;23894;51.466;7.444;2022-09-30T03:49:39;5.90;99.90
38084;DHT22;23894;51.466;7.444;2022-09-30T03:51:41;5.90;99.90
38084;DHT22;23894;51.466;7.444;2022-09-30T03:53:43;5.90;99.90
38084;DHT22;23894;51.466;7.444;2022-09-30T03:55:49;6.00;99.90
38084;DHT22;23894;51.466;7.444;2022-09-30T03:57:49;6.00;99.90
38084;DHT22;23894;51.466;7.444;2022-09-30T03:59:50;6.00;99.90
38084;DHT22;23894;51.466;7.444;2022-09-30T04:01:51;6.00;99.90
38084;DHT22;23894;51.466;7.444;2022-09-30T04:03:53;6.00;99.90
38084;DHT22;23894;51.466;7.444;2022-09-30T04:05:53;5.90;99.90
38084;DHT22;23894;51.466;7.444;2022-09-30T04:07:54;6.00;99.90
38084;DHT22;23894;51.466;7.444;2022-09-30T04:09:54;6.00;99.90
38084;DHT22;23894;51.466;7.444;2022-09-30T04:11:55;6.00;99.90
38084;DHT22;23894;51.466;7.444;2022-09-30T04:13:56;5.90;99.90
38084;DHT22;23894;51.466;7.444;2022-09-30T04:15:56;5.90;99.90
38084;DHT22;23894;51.466;7.444;2022-09-30T04:17:57;5.90;99.90
38084;DHT22;23894;51.466;7.444;2022-09-30T04:19:58;5.90;99.90
38084;DHT22;23894;51.466;7.444;2022-09-30T04:21:59;5.80;99.90
38084;DHT22;23894;51.466;7.444;2022-09-30T04:24:03;5.80;99.90
38084;DHT22;23894;51.466;7.444;2022-09-30T04:26:05;5.80;99.90
38084;DHT22;23894;51.466;7.444;2022-09-30T04:28:06;5.80;99.90
38084;DHT22;23894;51.466;7.444;2022-09-30T04:30:07;5.80;99.90
38084;DHT22;23894;51.466;7.444;2022-09-30T04:32:07;5.80;99.90
38084;DHT22;23894;51.466;7.444;2022-09-30T04:34:08;5.80;99.90
38084;DHT22;23894;51.466;7.444;2022-09-30T04:36:10;5.80;99.90
38084;DHT22;23894;51.466;7.444;2022-09-30T04:38:11;5.80;99.90
38084;DHT22;23894;51.466;7.444;2022-09-30T04:40:12;5.70;99.90
38084;DHT22;23894;51.466;7.444;2022-09-30T04:42:13;5.80;99.90
38084;DHT22;23894;51.466;7.444;2022-09-30T04:44:14;5.80;99.90
38084;DHT22;23894;51.466;7.444;2022-09-30T04:46:16;5.80;99.90
38084;DHT22;23894;51.466;7.444;2022-09-30T04:48:17;5.80;99.90
38084;DHT22;23894;51.466;7.444;2022-09-30T04:50:18;5.80;99.90
38084;DHT22;23894;51.466;7.444;2022-09-30T04:52:19;5.80;99.90
38084;DHT22;23894;51.466;7.444;2022-09-30T04:54:19;5.80;99.90
38084;DHT22;23894;51.466;7.444;2022-09-30T04:56:20;5.80;99.90
38084;DHT22;23894;51.466;7.444;2022-09-30T04:58:22;5.70;99.90
38084;DHT22;23894;51.466;7.444;2022-09-30T05:00:23;5.70;99.90
38084;DHT22;23894;51.466;7.444;2022-09-30T05:02:25;5.70;99.90
38084;DHT22;23894;51.466;7.444;2022-09-30T05:04:25;5.70;99.90
38084;DHT22;23894;51.466;7.444;2022-09-30T05:06:26;5.70;99.90
38084;DHT22;23894;51.466;7.444;2022-09-30T05:08:27;5.70;99.90
38084;DHT22;23894;51.466;7.444;2022-09-30T05:10:28;5.70;99.90
38084;DHT22;23894;51.466;7.444;2022-09-30T05:12:32;5.70;99.90
38084;DHT22;23894;51.466;7.444;2022-09-30T05:14:33;5.70;99.90
38084;DHT22;23894;51.466;7.444;2022-09-30T05:16:34;5.70;99.90
38084;DHT22;23894;51.466;7.444;2022-09-30T05:18:34;5.60;99.90
38084;DHT22;23894;51.466;7.444;2022-09-30T05:20:35;5.70;99.90
38084;DHT22;23894;51.466;7.444;2022-09-30T05:22:36;5.70;99.90
38084;DHT22;23894;51.466;7.444;2022-09-30T05:24:37;5.60;99.90
38084;DHT22;23894;51.466;7.444;2022-09-30T05:26:38;5.60;99.90
38084;DHT22;23894;51.466;7.444;2022-09-30T05:28:40;5.60;99.90
38084;DHT22;23894;51.466;7.444;2022-09-30T05:30:41;5.60;99.90
38084;DHT22;23894;51.466;7.444;2022-09-30T05:32:42;5.60;99.90
38084;DHT22;23894;51.466;7.444;2022-09-30T05:34:43;5.60;99.90
38084;DHT22;23894;51.466;7.444;2022-09-30T05:36:44;5.70;99.90
38084;DHT22;23894;51.466;7.444;2022-09-30T05:38:44;5.70;99.90
38084;DHT22;23894;51.466;7.444;2022-09-30T05:40:45;5.70;99.90
38084;DHT22;23894;51.466;7.444;2022-09-30T05:42:45;5.70;99.90
38084;DHT22;23894;51.466;7.444;2022-09-30T05:44:46;5.70;99.90
38084;DHT22;23894;51.466;7.444;2022-09-30T05:46:47;5.70;99.90
38084;DHT22;23894;51.466;7.444;2022-09-30T05:48:47;5.70;99.90
38084;DHT22;23894;51.466;7.444;2022-09-30T05:50:48;5.70;99.90
38084;DHT22;23894;51.466;7.444;2022-09-30T05:52:50;5.70;99.90
38084;DHT22;23894;51.466;7.444;2022-09-30T05:54:51;5.80;99.90
38084;DHT22;23894;51.466;7.444;2022-09-30T05:56:51;5.90;99.90
38084;DHT22;23894;51.466;7.444;2022-09-30T05:58:52;5.90;99.90
38084;DHT22;23894;51.466;7.444;2022-09-30T06:00:53;5.90;99.90
38084;DHT22;23894;51.466;7.444;2022-09-30T06:02:54;6.00;99.90
38084;DHT22;23894;51.466;7.444;2022-09-30T06:04:54;6.00;99.90
38084;DHT22;23894;51.466;7.444;2022-09-30T06:06:55;6.00;99.90
38084;DHT22;23894;51.466;7.444;2022-09-30T06:08:55;6.10;99.90
38084;DHT22;23894;51.466;7.444;2022-09-30T06:10:56;6.10;99.90
38084;DHT22;23894;51.466;7.444;2022-09-30T06:13:04;6.20;99.90
38084;DHT22;23894;51.466;7.444;2022-09-30T06:15:05;6.20;99.90
38084;DHT22;23894;51.466;7.444;2022-09-30T06:17:06;6.20;99.90
38084;DHT22;23894;51.466;7.444;2022-09-30T06:19:06;6.30;99.90
38084;DHT22;23894;51.466;7.444;2022-09-30T06:21:10;6.30;99.90
38084;DHT22;23894;51.466;7.444;2022-09-30T06:23:11;6.30;99.90
38084;DHT22;23894;51.466;7.444;2022-09-30T06:25:12;6.40;99.90
38084;DHT22;23894;51.466;7.444;2022-09-30T06:27:13;6.40;99.90
38084;DHT22;23894;51.466;7.444;2022-09-30T06:29:14;6.40;99.90
38084;DHT22;23894;51.466;7.444;2022-09-30T06:31:15;6.50;99.90
38084;DHT22;23894;51.466;7.444;2022-09-30T06:33:15;6.50;99.90
38084;DHT22;23894;51.466;7.444;2022-09-30T06:35:16;6.50;99.90
38084;DHT22;23894;51.466;7.444;2022-09-30T06:37:18;6.60;99.90
38084;DHT22;23894;51.466;7.444;2022-09-30T06:39:19;6.70;99.90
38084;DHT22;23894;51.466;7.444;2022-09-30T06:41:20;6.70;99.90
38084;DHT22;23894;51.466;7.444;2022-09-30T06:43:25;6.80;99.90
38084;DHT22;23894;51.466;7.444;2022-09-30T06:45:26;6.80;99.90
38084;DHT22;23894;51.466;7.444;2022-09-30T06:47:27;6.90;99.90
38084;DHT22;23894;51.466;7.444;2022-09-30T06:49:27;6.90;99.90
38084;DHT22;23894;51.466;7.444;2022-09-30T06:51:29;7.00;99.90
38084;DHT22;23894;51.466;7.444;2022-09-30T06:53:32;7.10;99.90
38084;DHT22;23894;51.466;7.444;2022-09-30T06:55:35;7.10;99.90
38084;DHT22;23894;51.466;7.444;2022-09-30T06:57:39;7.20;99.90
38084;DHT22;23894;51.466;7.444;2022-09-30T06:59:40;7.30;99.90
38084;DHT22;23894;51.466;7.444;2022-09-30T07:01:41;7.30;99.90
38084;DHT22;23894;51.466;7.444;2022-09-30T07:03:42;7.40;99.90
38084;DHT22;23894;51.466;7.444;2022-09-30T07:05:44;7.40;99.90
38084;DHT22;23894;51.466;7.444;2022-09-30T07:07:44;7.50;99.90
38084;DHT22;23894;51.466;7.444;2022-09-30T07:09:45;7.60;99.90
38084;DHT22;23894;51.466;7.444;2022-09-30T07:11:46;7.60;99.90
38084;DHT22;23894;51.466;7.444;2022-09-30T07:13:48;7.70;99.90
38084;DHT22;23894;51.466;7.444;2022-09-30T07:15:48;7.80;99.90
38084;DHT22;23894;51.466;7.444;2022-09-30T07:17:54;7.90;99.90
38084;DHT22;23894;51.466;7.444;2022-09-30T07:19:58;8.00;99.90
38084;DHT22;23894;51.466;7.444;2022-09-30T07:22:00;8.10;99.90
38084;DHT22;23894;51.466;7.444;2022-09-30T07:24:21;8.20;99.90
38084;DHT22;23894;51.466;7.444;2022-09-30T07:26:23;8.30;99.90
38084;DHT22;23894;51.466;7.444;2022-09-30T07:28:24;8.40;99.90
38084;DHT22;23894;51.466;7.444;2022-09-30T07:30:31;8.50;99.90
38084;DHT22;23894;51.466;7.444;2022-09-30T07:32:31;8.60;99.90
38084;DHT22;23894;51.466;7.444;2022-09-30T07:34:32;8.70;99.90
38084;DHT22;23894;51.466;7.444;2022-09-30T07:36:33;8.80;99.90
38084;DHT22;23894;51.466;7.444;2022-09-30T07:38:38;8.90;99.90
38084;DHT22;23894;51.466;7.444;2022-09-30T07:40:39;9.00;99.90
38084;DHT22;23894;51.466;7.444;2022-09-30T07:42:41;9.10;99.90
38084;DHT22;23894;51.466;7.444;2022-09-30T07:44:45;9.10;99.90
38084;DHT22;23894;51.466;7.444;2022-09-30T07:46:45;9.30;99.90
38084;DHT22;23894;51.466;7.444;2022-09-30T07:48:47;9.30;99.90
38084;DHT22;23894;51.466;7.444;2022-09-30T07:50:52;9.40;99.90
38084;DHT22;23894;51.466;7.444;2022-09-30T07:52:53;9.50;99.90
38084;DHT22;23894;51.466;7.444;2022-09-30T07:54:55;9.60;99.90
38084;DHT22;23894;51.466;7.444;2022-09-30T07:56:56;9.70;99.90
38084;DHT22;23894;51.466;7.444;2022-09-30T07:59:00;9.80;99.90
38084;DHT22;23894;51.466;7.444;2022-09-30T08:01:03;9.90;99.90
38084;DHT22;23894;51.466;7.444;2022-09-30T08:03:06;9.90;99.90
38084;DHT22;23894;51.466;7.444;2022-09-30T08:05:06;10.00;99.90
38084;DHT22;23894;51.466;7.444;2022-09-30T08:07:07;10.10;99.90
38084;DHT22;23894;51.466;7.444;2022-09-30T08:09:08;10.20;99.90
38084;DHT22;23894;51.466;7.444;2022-09-30T08:11:10;10.30;99.90
38084;DHT22;23894;51.466;7.444;2022-09-30T08:13:10;10.40;99.90
38084;DHT22;23894;51.466;7.444;2022-09-30T08:15:15;10.40;99.90
38084;DHT22;23894;51.466;7.444;2022-09-30T08:17:16;10.50;99.90
38084;DHT22;23894;51.466;7.444;2022-09-30T08:19:19;10.60;99.90
38084;DHT22;23894;51.466;7.444;2022-09-30T08:21:21;10.70;99.90
38084;DHT22;23894;51.466;7.444;2022-09-30T08:23:22;10.80;99.90
38084;DHT22;23894;51.466;7.444;2022-09-30T08:25:23;10.80;99.90
38084;DHT22;23894;51.466;7.444;2022-09-30T08:27:24;11.00;99.90
38084;DHT22;23894;51.466;7.444;2022-09-30T08:29:24;11.00;99.90
38084;DHT22;23894;51.466;7.444;2022-09-30T08:31:25;11.10;99.90
38084;DHT22;23894;51.466;7.444;2022-09-30T08:33:27;11.10;99.90
